sensor_id;sensor_type;location;lat;lon;timestamp;P1;durP1;ratioP1;P2;durP2;ratioP2
27303;SDS011;14791;52.392;13.092;2024-03-23T00:51:38;3.23;;;2.20;;
27303;SDS011;14791;52.392;13.092;2024-03-23T00:54:07;3.83;;;2.30;;
27303;SDS011;14791;52.392;13.092;2024-03-23T00:56:36;4.30;;;2.20;;
27303;SDS011;14791;52.392;13.092;2024-03-23T00:59:05;3.07;;;2.17;;
27303;SDS011;14791;52.392;13.092;2024-03-23T01:01:34;1.97;;;1.83;;
27303;SDS011;14791;52.392;13.092;2024-03-23T01:04:03;6.80;;;2.57;;
27303;SDS011;14791;52.392;13.092;2024-03-23T01:06:32;8.37;;;2.50;;
27303;SDS011;14791;52.392;13.092;2024-03-23T01:09:01;4.80;;;2.53;;
27303;SDS011;14791;52.392;13.092;2024-03-23T01:11:29;4.27;;;1.90;;
27303;SDS011;14791;52.392;13.092;2024-03-23T01:13:58;5.53;;;2.37;;
27303;SDS011;14791;52.392;13.092;2024-03-23T01:16:28;2.60;;;1.70;;
27303;SDS011;14791;52.392;13.092;2024-03-23T01:18:57;4.03;;;2.20;;
27303;SDS011;14791;52.392;13.092;2024-03-23T01:21:26;3.63;;;2.00;;
27303;SDS011;14791;52.392;13.092;2024-03-23T01:23:54;4.47;;;2.33;;
27303;SDS011;14791;52.392;13.092;2024-03-23T01:26:23;5.47;;;2.27;;
27303;SDS011;14791;52.392;13.092;2024-03-23T01:28:52;4.23;;;2.40;;
27303;SDS011;14791;52.392;13.092;2024-03-23T01:31:21;4.30;;;2.20;;
27303;SDS011;14791;52.392;13.092;2024-03-23T01:33:50;3.70;;;2.20;;
27303;SDS011;14791;52.392;13.092;2024-03-23T01:36:19;7.97;;;2.77;;
27303;SDS011;14791;52.392;13.092;2024-03-23T01:38:48;3.30;;;2.00;;
27303;SDS011;14791;52.392;13.092;2024-03-23T01:41:17;5.77;;;2.60;;
27303;SDS011;14791;52.392;13.092;2024-03-23T01:43:46;2.40;;;2.20;;
27303;SDS011;14791;52.392;13.092;2024-03-23T01:46:15;3.20;;;2.20;;
27303;SDS011;14791;52.392;13.092;2024-03-23T01:48:44;2.97;;;2.03;;
27303;SDS011;14791;52.392;13.092;2024-03-23T01:51:14;6.33;;;2.30;;
27303;SDS011;14791;52.392;13.092;2024-03-23T01:53:43;4.90;;;2.10;;
27303;SDS011;14791;52.392;13.092;2024-03-23T01:56:12;2.53;;;2.10;;
27303;SDS011;14791;52.392;13.092;2024-03-23T01:58:41;7.30;;;2.47;;
27303;SDS011;14791;52.392;13.092;2024-03-23T02:01:10;4.00;;;1.80;;
27303;SDS011;14791;52.392;13.092;2024-03-23T02:03:39;6.13;;;2.30;;
27303;SDS011;14791;52.392;13.092;2024-03-23T02:06:08;5.23;;;2.50;;
27303;SDS011;14791;52.392;13.092;2024-03-23T02:08:37;2.57;;;2.07;;
27303;SDS011;14791;52.392;13.092;2024-03-23T02:11:07;3.90;;;2.23;;
27303;SDS011;14791;52.392;13.092;2024-03-23T02:13:35;4.47;;;4.00;;
27303;SDS011;14791;52.392;13.092;2024-03-23T02:16:05;4.23;;;2.50;;
27303;SDS011;14791;52.392;13.092;2024-03-23T02:18:34;2.60;;;1.80;;
27303;SDS011;14791;52.392;13.092;2024-03-23T02:21:03;4.70;;;2.27;;
27303;SDS011;14791;52.392;13.092;2024-03-23T02:23:32;3.00;;;1.97;;
27303;SDS011;14791;52.392;13.092;2024-03-23T02:26:01;4.00;;;2.27;;
27303;SDS011;14791;52.392;13.092;2024-03-23T02:28:30;3.13;;;2.37;;
27303;SDS011;14791;52.392;13.092;2024-03-23T02:31:02;4.23;;;2.40;;
27303;SDS011;14791;52.392;13.092;2024-03-23T02:33:31;4.30;;;3.40;;
27303;SDS011;14791;52.392;13.092;2024-03-23T02:36:01;5.23;;;2.73;;
27303;SDS011;14791;52.392;13.092;2024-03-23T02:38:31;4.60;;;2.80;;
27303;SDS011;14791;52.392;13.092;2024-03-23T02:41:03;3.97;;;2.43;;
27303;SDS011;14791;52.392;13.092;2024-03-23T02:43:32;3.50;;;2.87;;
27303;SDS011;14791;52.392;13.092;2024-03-23T02:46:01;4.87;;;2.30;;
27303;SDS011;14791;52.392;13.092;2024-03-23T02:48:31;6.90;;;2.77;;
27303;SDS011;14791;52.392;13.092;2024-03-23T02:51:00;3.83;;;2.17;;
27303;SDS011;14791;52.392;13.092;2024-03-23T02:53:29;7.50;;;2.20;;
27303;SDS011;14791;52.392;13.092;2024-03-23T02:55:58;3.30;;;1.93;;
27303;SDS011;14791;52.392;13.092;2024-03-23T02:58:27;6.87;;;2.60;;
27303;SDS011;14791;52.392;13.092;2024-03-23T03:00:56;5.27;;;2.60;;
27303;SDS011;14791;52.392;13.092;2024-03-23T03:03:25;3.67;;;1.73;;
27303;SDS011;14791;52.392;13.092;2024-03-23T03:05:57;4.80;;;2.17;;
27303;SDS011;14791;52.392;13.092;2024-03-23T03:08:26;3.87;;;2.63;;
27303;SDS011;14791;52.392;13.092;2024-03-23T03:10:55;6.23;;;2.47;;
27303;SDS011;14791;52.392;13.092;2024-03-23T03:13:23;5.83;;;2.60;;
27303;SDS011;14791;52.392;13.092;2024-03-23T03:15:52;2.90;;;2.00;;
27303;SDS011;14791;52.392;13.092;2024-03-23T03:18:21;3.80;;;2.20;;
27303;SDS011;14791;52.392;13.092;2024-03-23T03:20:53;3.80;;;2.20;;
27303;SDS011;14791;52.392;13.092;2024-03-23T03:23:22;3.07;;;2.70;;
27303;SDS011;14791;52.392;13.092;2024-03-23T03:25:51;4.00;;;2.60;;
27303;SDS011;14791;52.392;13.092;2024-03-23T03:28:20;5.53;;;2.63;;
27303;SDS011;14791;52.392;13.092;2024-03-23T03:30:49;6.47;;;2.30;;
27303;SDS011;14791;52.392;13.092;2024-03-23T03:33:17;4.17;;;2.80;;
27303;SDS011;14791;52.392;13.092;2024-03-23T03:35:46;3.60;;;2.37;;
27303;SDS011;14791;52.392;13.092;2024-03-23T03:38:16;4.87;;;2.43;;
27303;SDS011;14791;52.392;13.092;2024-03-23T03:40:44;4.47;;;2.70;;
27303;SDS011;14791;52.392;13.092;2024-03-23T03:43:13;4.03;;;2.17;;
27303;SDS011;14791;52.392;13.092;2024-03-23T03:45:42;4.50;;;2.40;;
27303;SDS011;14791;52.392;13.092;2024-03-23T03:48:12;6.10;;;2.33;;
27303;SDS011;14791;52.392;13.092;2024-03-23T03:50:41;3.37;;;2.03;;
27303;SDS011;14791;52.392;13.092;2024-03-23T03:53:10;5.63;;;2.33;;
27303;SDS011;14791;52.392;13.092;2024-03-23T03:55:39;2.90;;;2.23;;
27303;SDS011;14791;52.392;13.092;2024-03-23T03:58:08;2.90;;;1.90;;
27303;SDS011;14791;52.392;13.092;2024-03-23T04:00:37;2.77;;;2.00;;
27303;SDS011;14791;52.392;13.092;2024-03-23T04:03:07;4.43;;;2.10;;
27303;SDS011;14791;52.392;13.092;2024-03-23T04:05:36;3.53;;;1.80;;
27303;SDS011;14791;52.392;13.092;2024-03-23T04:08:05;2.97;;;1.80;;
27303;SDS011;14791;52.392;13.092;2024-03-23T04:10:35;3.03;;;1.87;;
27303;SDS011;14791;52.392;13.092;2024-03-23T04:13:04;3.70;;;1.80;;
27303;SDS011;14791;52.392;13.092;2024-03-23T04:15:32;2.73;;;2.10;;
27303;SDS011;14791;52.392;13.092;2024-03-23T04:18:01;2.67;;;1.63;;
27303;SDS011;14791;52.392;13.092;2024-03-23T04:20:30;4.13;;;2.07;;
27303;SDS011;14791;52.392;13.092;2024-03-23T04:22:59;2.13;;;1.80;;
27303;SDS011;14791;52.392;13.092;2024-03-23T04:25:28;3.17;;;1.60;;
27303;SDS011;14791;52.392;13.092;2024-03-23T04:27:58;2.13;;;1.60;;
27303;SDS011;14791;52.392;13.092;2024-03-23T04:30:27;1.73;;;1.50;;
27303;SDS011;14791;52.392;13.092;2024-03-23T04:32:56;2.40;;;1.50;;
27303;SDS011;14791;52.392;13.092;2024-03-23T04:35:25;2.60;;;1.50;;
27303;SDS011;14791;52.392;13.092;2024-03-23T04:37:54;1.13;;;1.03;;
27303;SDS011;14791;52.392;13.092;2024-03-23T04:40:25;1.67;;;1.20;;
27303;SDS011;14791;52.392;13.092;2024-03-23T04:42:54;1.40;;;1.30;;
27303;SDS011;14791;52.392;13.092;2024-03-23T04:45:23;1.67;;;1.30;;
27303;SDS011;14791;52.392;13.092;2024-03-23T04:47:52;2.47;;;1.20;;
27303;SDS011;14791;52.392;13.092;2024-03-23T04:50:21;3.00;;;1.37;;
27303;SDS011;14791;52.392;13.092;2024-03-23T04:52:50;2.03;;;1.30;;
27303;SDS011;14791;52.392;13.092;2024-03-23T04:55:18;1.70;;;1.60;;
27303;SDS011;14791;52.392;13.092;2024-03-23T04:57:49;1.47;;;1.37;;
27303;SDS011;14791;52.392;13.092;2024-03-23T05:00:18;1.57;;;1.37;;
27303;SDS011;14791;52.392;13.092;2024-03-23T05:02:47;1.63;;;1.17;;
27303;SDS011;14791;52.392;13.092;2024-03-23T05:05:17;2.73;;;1.50;;
27303;SDS011;14791;52.392;13.092;2024-03-23T05:07:46;1.47;;;1.37;;
27303;SDS011;14791;52.392;13.092;2024-03-23T05:10:15;4.27;;;1.43;;
27303;SDS011;14791;52.392;13.092;2024-03-23T05:12:44;1.60;;;1.27;;
27303;SDS011;14791;52.392;13.092;2024-03-23T05:15:13;3.90;;;1.73;;
27303;SDS011;14791;52.392;13.092;2024-03-23T05:17:42;1.57;;;1.10;;
27303;SDS011;14791;52.392;13.092;2024-03-23T05:20:10;1.67;;;1.30;;
27303;SDS011;14791;52.392;13.092;2024-03-23T05:22:39;1.50;;;1.40;;
27303;SDS011;14791;52.392;13.092;2024-03-23T05:25:08;2.53;;;1.70;;
27303;SDS011;14791;52.392;13.092;2024-03-23T05:27:38;3.57;;;1.37;;
27303;SDS011;14791;52.392;13.092;2024-03-23T05:30:08;1.77;;;1.30;;
27303;SDS011;14791;52.392;13.092;2024-03-23T05:32:38;2.17;;;1.20;;
27303;SDS011;14791;52.392;13.092;2024-03-23T05:35:09;1.83;;;1.17;;
27303;SDS011;14791;52.392;13.092;2024-03-23T05:37:38;1.70;;;0.87;;
27303;SDS011;14791;52.392;13.092;2024-03-23T05:40:07;1.60;;;1.03;;
27303;SDS011;14791;52.392;13.092;2024-03-23T05:42:37;1.47;;;1.20;;
27303;SDS011;14791;52.392;13.092;2024-03-23T05:45:06;1.73;;;1.20;;
27303;SDS011;14791;52.392;13.092;2024-03-23T05:47:36;2.43;;;1.50;;
27303;SDS011;14791;52.392;13.092;2024-03-23T05:50:05;1.30;;;0.97;;
27303;SDS011;14791;52.392;13.092;2024-03-23T05:52:36;1.30;;;1.20;;
27303;SDS011;14791;52.392;13.092;2024-03-23T05:55:05;1.20;;;1.10;;
27303;SDS011;14791;52.392;13.092;2024-03-23T05:57:34;1.43;;;1.17;;
27303;SDS011;14791;52.392;13.092;2024-03-23T06:00:03;1.87;;;1.60;;
27303;SDS011;14791;52.392;13.092;2024-03-23T06:02:36;1.20;;;1.10;;
27303;SDS011;14791;52.392;13.092;2024-03-23T06:05:05;1.87;;;1.47;;
27303;SDS011;14791;52.392;13.092;2024-03-23T06:07:35;1.50;;;1.40;;
27303;SDS011;14791;52.392;13.092;2024-03-23T06:10:04;1.60;;;1.13;;
27303;SDS011;14791;52.392;13.092;2024-03-23T06:12:34;0.97;;;0.97;;
27303;SDS011;14791;52.392;13.092;2024-03-23T06:15:03;2.33;;;1.23;;
27303;SDS011;14791;52.392;13.092;2024-03-23T06:17:33;1.50;;;1.40;;
27303;SDS011;14791;52.392;13.092;2024-03-23T06:20:03;1.23;;;1.13;;
27303;SDS011;14791;52.392;13.092;2024-03-23T06:22:37;1.13;;;1.10;;
27303;SDS011;14791;52.392;13.092;2024-03-23T06:25:06;1.63;;;1.53;;
27303;SDS011;14791;52.392;13.092;2024-03-23T06:27:35;1.70;;;1.60;;
27303;SDS011;14791;52.392;13.092;2024-03-23T06:30:04;1.50;;;1.30;;
27303;SDS011;14791;52.392;13.092;2024-03-23T06:32:34;1.33;;;1.23;;
27303;SDS011;14791;52.392;13.092;2024-03-23T06:35:03;1.57;;;1.47;;
27303;SDS011;14791;52.392;13.092;2024-03-23T06:37:35;1.97;;;1.43;;
27303;SDS011;14791;52.392;13.092;2024-03-23T06:40:06;1.47;;;1.13;;
27303;SDS011;14791;52.392;13.092;2024-03-23T06:42:37;2.17;;;1.30;;
27303;SDS011;14791;52.392;13.092;2024-03-23T06:45:06;2.27;;;1.53;;
27303;SDS011;14791;52.392;13.092;2024-03-23T06:47:36;2.10;;;1.77;;
27303;SDS011;14791;52.392;13.092;2024-03-23T06:50:05;1.60;;;1.50;;
27303;SDS011;14791;52.392;13.092;2024-03-23T06:52:36;2.13;;;1.47;;
27303;SDS011;14791;52.392;13.092;2024-03-23T06:55:05;2.00;;;1.40;;
27303;SDS011;14791;52.392;13.092;2024-03-23T06:57:35;1.50;;;1.37;;
27303;SDS011;14791;52.392;13.092;2024-03-23T07:00:04;1.73;;;1.40;;
27303;SDS011;14791;52.392;13.092;2024-03-23T07:02:35;2.13;;;1.20;;
27303;SDS011;14791;52.392;13.092;2024-03-23T07:05:04;2.87;;;1.30;;
27303;SDS011;14791;52.392;13.092;2024-03-23T07:07:34;1.50;;;1.40;;
27303;SDS011;14791;52.392;13.092;2024-03-23T07:10:03;1.37;;;1.27;;
27303;SDS011;14791;52.392;13.092;2024-03-23T07:12:32;3.47;;;1.90;;
27303;SDS011;14791;52.392;13.092;2024-03-23T07:15:01;1.93;;;1.67;;
27303;SDS011;14791;52.392;13.092;2024-03-23T07:17:30;3.37;;;1.60;;
27303;SDS011;14791;52.392;13.092;2024-03-23T07:20:00;2.13;;;1.37;;
27303;SDS011;14791;52.392;13.092;2024-03-23T07:22:31;1.70;;;1.60;;
27303;SDS011;14791;52.392;13.092;2024-03-23T07:25:00;1.77;;;1.20;;
27303;SDS011;14791;52.392;13.092;2024-03-23T07:27:30;2.00;;;1.30;;
27303;SDS011;14791;52.392;13.092;2024-03-23T07:29:59;2.50;;;1.50;;
27303;SDS011;14791;52.392;13.092;2024-03-23T07:32:28;1.43;;;1.33;;
27303;SDS011;14791;52.392;13.092;2024-03-23T07:34:57;1.70;;;1.60;;
27303;SDS011;14791;52.392;13.092;2024-03-23T07:37:25;2.97;;;1.50;;
27303;SDS011;14791;52.392;13.092;2024-03-23T07:39:54;1.60;;;1.50;;
27303;SDS011;14791;52.392;13.092;2024-03-23T07:42:24;1.60;;;1.50;;
27303;SDS011;14791;52.392;13.092;2024-03-23T07:44:53;3.67;;;1.90;;
27303;SDS011;14791;52.392;13.092;2024-03-23T07:47:24;2.53;;;1.77;;
27303;SDS011;14791;52.392;13.092;2024-03-23T07:49:53;3.10;;;2.00;;
27303;SDS011;14791;52.392;13.092;2024-03-23T07:52:22;2.17;;;1.37;;
27303;SDS011;14791;52.392;13.092;2024-03-23T07:54:50;2.50;;;1.40;;
27303;SDS011;14791;52.392;13.092;2024-03-23T07:57:19;1.17;;;1.17;;
27303;SDS011;14791;52.392;13.092;2024-03-23T07:59:48;1.60;;;1.50;;
27303;SDS011;14791;52.392;13.092;2024-03-23T08:02:18;1.60;;;1.50;;
27303;SDS011;14791;52.392;13.092;2024-03-23T08:04:47;2.10;;;1.90;;
27303;SDS011;14791;52.392;13.092;2024-03-23T08:07:16;1.50;;;1.40;;
27303;SDS011;14791;52.392;13.092;2024-03-23T08:09:45;1.93;;;1.70;;
27303;SDS011;14791;52.392;13.092;2024-03-23T08:12:14;1.63;;;1.53;;
27303;SDS011;14791;52.392;13.092;2024-03-23T08:14:43;2.90;;;1.50;;
27303;SDS011;14791;52.392;13.092;2024-03-23T08:17:11;1.40;;;1.23;;
27303;SDS011;14791;52.392;13.092;2024-03-23T08:19:40;2.13;;;1.10;;
27303;SDS011;14791;52.392;13.092;2024-03-23T08:22:09;1.83;;;1.10;;
27303;SDS011;14791;52.392;13.092;2024-03-23T08:24:38;1.37;;;1.27;;
27303;SDS011;14791;52.392;13.092;2024-03-23T08:27:07;1.13;;;0.80;;
27303;SDS011;14791;52.392;13.092;2024-03-23T08:29:36;1.00;;;1.00;;
27303;SDS011;14791;52.392;13.092;2024-03-23T08:32:04;0.57;;;0.57;;
27303;SDS011;14791;52.392;13.092;2024-03-23T08:34:34;0.70;;;0.70;;
27303;SDS011;14791;52.392;13.092;2024-03-23T08:37:02;1.00;;;0.73;;
27303;SDS011;14791;52.392;13.092;2024-03-23T08:39:31;0.53;;;0.53;;
27303;SDS011;14791;52.392;13.092;2024-03-23T08:42:00;1.23;;;0.60;;
27303;SDS011;14791;52.392;13.092;2024-03-23T08:44:29;0.57;;;0.57;;
27303;SDS011;14791;52.392;13.092;2024-03-23T08:46:58;1.03;;;1.00;;
27303;SDS011;14791;52.392;13.092;2024-03-23T08:49:28;0.90;;;0.90;;
27303;SDS011;14791;52.392;13.092;2024-03-23T08:51:57;1.13;;;0.90;;
27303;SDS011;14791;52.392;13.092;2024-03-23T08:54:26;0.80;;;0.80;;
27303;SDS011;14791;52.392;13.092;2024-03-23T08:56:56;2.10;;;0.90;;
27303;SDS011;14791;52.392;13.092;2024-03-23T08:59:24;1.03;;;1.00;;
27303;SDS011;14791;52.392;13.092;2024-03-23T09:01:53;1.30;;;0.90;;
27303;SDS011;14791;52.392;13.092;2024-03-23T09:04:22;0.90;;;0.90;;
27303;SDS011;14791;52.392;13.092;2024-03-23T09:06:51;0.67;;;0.60;;
27303;SDS011;14791;52.392;13.092;2024-03-23T09:09:20;1.00;;;0.97;;
27303;SDS011;14791;52.392;13.092;2024-03-23T09:11:49;2.10;;;1.07;;
27303;SDS011;14791;52.392;13.092;2024-03-23T09:14:18;1.00;;;1.00;;
27303;SDS011;14791;52.392;13.092;2024-03-23T09:16:49;0.80;;;0.80;;
27303;SDS011;14791;52.392;13.092;2024-03-23T09:19:18;0.80;;;0.80;;
27303;SDS011;14791;52.392;13.092;2024-03-23T09:21:47;0.90;;;0.90;;
27303;SDS011;14791;52.392;13.092;2024-03-23T09:24:17;0.90;;;0.90;;
27303;SDS011;14791;52.392;13.092;2024-03-23T09:26:46;1.40;;;1.30;;
27303;SDS011;14791;52.392;13.092;2024-03-23T09:29:15;3.13;;;1.13;;
27303;SDS011;14791;52.392;13.092;2024-03-23T09:31:44;2.87;;;1.23;;
27303;SDS011;14791;52.392;13.092;2024-03-23T09:34:12;1.50;;;1.30;;
27303;SDS011;14791;52.392;13.092;2024-03-23T09:36:42;1.40;;;1.17;;
27303;SDS011;14791;52.392;13.092;2024-03-23T09:39:12;1.50;;;1.07;;
27303;SDS011;14791;52.392;13.092;2024-03-23T09:41:41;2.53;;;1.33;;
27303;SDS011;14791;52.392;13.092;2024-03-23T09:44:10;1.57;;;1.40;;
27303;SDS011;14791;52.392;13.092;2024-03-23T09:46:40;1.90;;;1.37;;
27303;SDS011;14791;52.392;13.092;2024-03-23T09:49:09;1.63;;;1.30;;
27303;SDS011;14791;52.392;13.092;2024-03-23T09:51:38;1.93;;;1.37;;
27303;SDS011;14791;52.392;13.092;2024-03-23T09:54:07;1.40;;;1.30;;
27303;SDS011;14791;52.392;13.092;2024-03-23T09:56:36;1.60;;;1.50;;
27303;SDS011;14791;52.392;13.092;2024-03-23T09:59:05;2.50;;;1.40;;
27303;SDS011;14791;52.392;13.092;2024-03-23T10:01:34;2.63;;;1.47;;
27303;SDS011;14791;52.392;13.092;2024-03-23T10:04:03;1.67;;;1.33;;
27303;SDS011;14791;52.392;13.092;2024-03-23T10:06:32;2.73;;;1.43;;
27303;SDS011;14791;52.392;13.092;2024-03-23T10:09:02;3.07;;;1.60;;
27303;SDS011;14791;52.392;13.092;2024-03-23T10:11:35;2.47;;;1.57;;
27303;SDS011;14791;52.392;13.092;2024-03-23T10:14:04;0.87;;;0.87;;
27303;SDS011;14791;52.392;13.092;2024-03-23T10:16:32;1.63;;;1.30;;
27303;SDS011;14791;52.392;13.092;2024-03-23T10:19:01;2.50;;;1.70;;
27303;SDS011;14791;52.392;13.092;2024-03-23T10:21:30;1.00;;;1.00;;
27303;SDS011;14791;52.392;13.092;2024-03-23T10:24:00;2.63;;;1.37;;
27303;SDS011;14791;52.392;13.092;2024-03-23T10:26:33;1.13;;;1.13;;
27303;SDS011;14791;52.392;13.092;2024-03-23T10:29:03;2.60;;;1.40;;
27303;SDS011;14791;52.392;13.092;2024-03-23T10:31:34;1.83;;;1.50;;
27303;SDS011;14791;52.392;13.092;2024-03-23T10:34:03;1.33;;;1.33;;
27303;SDS011;14791;52.392;13.092;2024-03-23T10:36:32;2.73;;;1.70;;
27303;SDS011;14791;52.392;13.092;2024-03-23T10:39:04;1.50;;;1.23;;
27303;SDS011;14791;52.392;13.092;2024-03-23T10:41:35;1.80;;;1.67;;
27303;SDS011;14791;52.392;13.092;2024-03-23T10:44:05;1.43;;;1.30;;
27303;SDS011;14791;52.392;13.092;2024-03-23T10:46:35;2.07;;;1.47;;
27303;SDS011;14791;52.392;13.092;2024-03-23T10:49:04;1.87;;;1.47;;
27303;SDS011;14791;52.392;13.092;2024-03-23T10:51:34;1.70;;;1.60;;
27303;SDS011;14791;52.392;13.092;2024-03-23T10:54:06;1.97;;;1.23;;
27303;SDS011;14791;52.392;13.092;2024-03-23T10:56:37;1.77;;;1.47;;
27303;SDS011;14791;52.392;13.092;2024-03-23T10:59:07;1.23;;;1.10;;
27303;SDS011;14791;52.392;13.092;2024-03-23T11:01:53;1.57;;;1.37;;
27303;SDS011;14791;52.392;13.092;2024-03-23T11:04:30;1.43;;;1.10;;
27303;SDS011;14791;52.392;13.092;2024-03-23T11:07:00;4.13;;;1.60;;
27303;SDS011;14791;52.392;13.092;2024-03-23T11:09:42;1.63;;;1.10;;
27303;SDS011;14791;52.392;13.092;2024-03-23T11:14:54;2.33;;;1.43;;
27303;SDS011;14791;52.392;13.092;2024-03-23T11:17:27;1.30;;;1.20;;
27303;SDS011;14791;52.392;13.092;2024-03-23T11:20:00;2.77;;;1.60;;
27303;SDS011;14791;52.392;13.092;2024-03-23T11:22:45;1.30;;;1.20;;
27303;SDS011;14791;52.392;13.092;2024-03-23T11:25:17;2.33;;;1.67;;
27303;SDS011;14791;52.392;13.092;2024-03-23T11:27:53;1.37;;;1.27;;
27303;SDS011;14791;52.392;13.092;2024-03-23T11:30:24;1.23;;;1.10;;
27303;SDS011;14791;52.392;13.092;2024-03-23T11:32:56;3.43;;;1.40;;
27303;SDS011;14791;52.392;13.092;2024-03-23T11:35:28;3.40;;;1.50;;
27303;SDS011;14791;52.392;13.092;2024-03-23T11:38:14;2.60;;;1.40;;
27303;SDS011;14791;52.392;13.092;2024-03-23T11:40:41;1.60;;;1.30;;
27303;SDS011;14791;52.392;13.092;2024-03-23T11:43:16;1.47;;;1.37;;
27303;SDS011;14791;52.392;13.092;2024-03-23T11:48:22;1.80;;;1.13;;
27303;SDS011;14791;52.392;13.092;2024-03-23T11:50:56;1.40;;;1.30;;
27303;SDS011;14791;52.392;13.092;2024-03-23T11:53:25;1.63;;;1.30;;
27303;SDS011;14791;52.392;13.092;2024-03-23T11:55:58;0.93;;;0.90;;
27303;SDS011;14791;52.392;13.092;2024-03-23T11:58:30;1.30;;;1.20;;
27303;SDS011;14791;52.392;13.092;2024-03-23T12:01:03;1.13;;;1.03;;
27303;SDS011;14791;52.392;13.092;2024-03-23T12:03:32;0.80;;;0.80;;
27303;SDS011;14791;52.392;13.092;2024-03-23T12:06:03;1.37;;;1.27;;
27303;SDS011;14791;52.392;13.092;2024-03-23T12:08:34;1.57;;;1.47;;
27303;SDS011;14791;52.392;13.092;2024-03-23T12:11:05;1.73;;;1.27;;
27303;SDS011;14791;52.392;13.092;2024-03-23T12:13:37;2.00;;;1.20;;
27303;SDS011;14791;52.392;13.092;2024-03-23T12:16:10;1.33;;;1.23;;
27303;SDS011;14791;52.392;13.092;2024-03-23T12:18:40;2.57;;;1.40;;
27303;SDS011;14791;52.392;13.092;2024-03-23T12:21:10;1.23;;;1.13;;
27303;SDS011;14791;52.392;13.092;2024-03-23T12:23:40;2.37;;;1.50;;
27303;SDS011;14791;52.392;13.092;2024-03-23T12:26:13;2.07;;;1.50;;
27303;SDS011;14791;52.392;13.092;2024-03-23T12:28:43;1.33;;;1.10;;
27303;SDS011;14791;52.392;13.092;2024-03-23T12:31:12;1.90;;;1.50;;
27303;SDS011;14791;52.392;13.092;2024-03-23T12:33:41;0.83;;;0.83;;
27303;SDS011;14791;52.392;13.092;2024-03-23T12:36:11;1.00;;;1.00;;
27303;SDS011;14791;52.392;13.092;2024-03-23T12:38:40;1.10;;;1.00;;
27303;SDS011;14791;52.392;13.092;2024-03-23T12:41:10;2.13;;;1.30;;
27303;SDS011;14791;52.392;13.092;2024-03-23T12:43:39;1.90;;;1.20;;
27303;SDS011;14791;52.392;13.092;2024-03-23T12:46:08;1.60;;;1.50;;
27303;SDS011;14791;52.392;13.092;2024-03-23T12:48:38;1.33;;;1.03;;
27303;SDS011;14791;52.392;13.092;2024-03-23T12:51:09;1.83;;;1.17;;
27303;SDS011;14791;52.392;13.092;2024-03-23T12:53:38;2.13;;;1.30;;
27303;SDS011;14791;52.392;13.092;2024-03-23T12:56:07;2.77;;;1.50;;
27303;SDS011;14791;52.392;13.092;2024-03-23T12:58:37;2.43;;;1.30;;
27303;SDS011;14791;52.392;13.092;2024-03-23T13:01:06;1.47;;;1.30;;
27303;SDS011;14791;52.392;13.092;2024-03-23T13:03:35;1.67;;;1.40;;
27303;SDS011;14791;52.392;13.092;2024-03-23T13:06:04;1.50;;;1.40;;
27303;SDS011;14791;52.392;13.092;2024-03-23T13:08:34;1.70;;;1.33;;
27303;SDS011;14791;52.392;13.092;2024-03-23T13:11:03;2.77;;;1.93;;
27303;SDS011;14791;52.392;13.092;2024-03-23T13:13:32;2.77;;;1.77;;
27303;SDS011;14791;52.392;13.092;2024-03-23T13:16:01;1.63;;;1.53;;
27303;SDS011;14791;52.392;13.092;2024-03-23T13:18:31;1.15;;;1.15;;
27303;SDS011;14791;52.392;13.092;2024-03-23T13:21:00;1.95;;;1.20;;
27303;SDS011;14791;52.392;13.092;2024-03-23T13:23:29;1.87;;;1.32;;
27303;SDS011;14791;52.392;13.092;2024-03-23T13:25:59;1.32;;;1.22;;
27303;SDS011;14791;52.392;13.092;2024-03-23T13:28:28;2.42;;;1.55;;
27303;SDS011;14791;52.392;13.092;2024-03-23T13:30:57;2.15;;;1.50;;
27303;SDS011;14791;52.392;13.092;2024-03-23T13:33:27;2.85;;;1.60;;
27303;SDS011;14791;52.392;13.092;2024-03-23T13:35:57;2.35;;;1.50;;
27303;SDS011;14791;52.392;13.092;2024-03-23T13:38:26;3.37;;;2.33;;
27303;SDS011;14791;52.392;13.092;2024-03-23T13:40:58;2.30;;;2.15;;
27303;SDS011;14791;52.392;13.092;2024-03-23T13:43:28;1.67;;;1.57;;
27303;SDS011;14791;52.392;13.092;2024-03-23T13:45:57;2.52;;;1.80;;
27303;SDS011;14791;52.392;13.092;2024-03-23T13:48:27;1.50;;;1.40;;
27303;SDS011;14791;52.392;13.092;2024-03-23T13:50:56;1.67;;;1.45;;
27303;SDS011;14791;52.392;13.092;2024-03-23T13:53:27;2.20;;;1.85;;
27303;SDS011;14791;52.392;13.092;2024-03-23T13:55:56;1.80;;;1.60;;
27303;SDS011;14791;52.392;13.092;2024-03-23T13:58:25;2.92;;;2.08;;
27303;SDS011;14791;52.392;13.092;2024-03-23T14:00:56;2.40;;;2.20;;
27303;SDS011;14791;52.392;13.092;2024-03-23T14:03:25;1.85;;;1.70;;
27303;SDS011;14791;52.392;13.092;2024-03-23T14:05:57;2.08;;;1.98;;
27303;SDS011;14791;52.392;13.092;2024-03-23T14:08:28;1.98;;;1.87;;
27303;SDS011;14791;52.392;13.092;2024-03-23T14:10:58;1.98;;;1.87;;
27303;SDS011;14791;52.392;13.092;2024-03-23T14:13:27;2.72;;;2.25;;
27303;SDS011;14791;52.392;13.092;2024-03-23T14:15:56;2.77;;;2.55;;
27303;SDS011;14791;52.392;13.092;2024-03-23T14:18:26;2.60;;;2.40;;
27303;SDS011;14791;52.392;13.092;2024-03-23T14:20:59;1.90;;;1.80;;
27303;SDS011;14791;52.392;13.092;2024-03-23T14:23:30;2.85;;;2.27;;
27303;SDS011;14791;52.392;13.092;2024-03-23T14:26:01;2.40;;;2.20;;
27303;SDS011;14791;52.392;13.092;2024-03-23T14:28:30;2.50;;;2.22;;
27303;SDS011;14791;52.392;13.092;2024-03-23T14:30:59;2.80;;;1.95;;
27303;SDS011;14791;52.392;13.092;2024-03-23T14:33:28;1.85;;;1.75;;
27303;SDS011;14791;52.392;13.092;2024-03-23T14:35:57;1.45;;;1.32;;
27303;SDS011;14791;52.392;13.092;2024-03-23T14:38:25;0.90;;;0.90;;
27303;SDS011;14791;52.392;13.092;2024-03-23T14:40:57;0.90;;;0.83;;
27303;SDS011;14791;52.392;13.092;2024-03-23T14:43:30;0.70;;;0.70;;
27303;SDS011;14791;52.392;13.092;2024-03-23T14:46:12;0.70;;;0.70;;
27303;SDS011;14791;52.392;13.092;2024-03-23T14:48:42;0.70;;;0.70;;
27303;SDS011;14791;52.392;13.092;2024-03-23T14:51:13;0.97;;;0.70;;
27303;SDS011;14791;52.392;13.092;2024-03-23T14:53:44;1.20;;;0.90;;
27303;SDS011;14791;52.392;13.092;2024-03-23T14:56:15;2.03;;;1.00;;
27303;SDS011;14791;52.392;13.092;2024-03-23T14:58:44;1.83;;;1.10;;
27303;SDS011;14791;52.392;13.092;2024-03-23T15:01:15;0.97;;;0.97;;
27303;SDS011;14791;52.392;13.092;2024-03-23T15:03:43;0.80;;;0.80;;
27303;SDS011;14791;52.392;13.092;2024-03-23T15:06:14;1.60;;;1.00;;
27303;SDS011;14791;52.392;13.092;2024-03-23T15:08:43;1.30;;;1.20;;
27303;SDS011;14791;52.392;13.092;2024-03-23T15:11:11;1.20;;;0.93;;
27303;SDS011;14791;52.392;13.092;2024-03-23T15:13:40;1.23;;;1.00;;
27303;SDS011;14791;52.392;13.092;2024-03-23T15:16:10;1.53;;;1.30;;
27303;SDS011;14791;52.392;13.092;2024-03-23T15:18:39;1.13;;;1.00;;
27303;SDS011;14791;52.392;13.092;2024-03-23T15:21:08;1.50;;;1.40;;
27303;SDS011;14791;52.392;13.092;2024-03-23T15:23:38;1.03;;;1.03;;
27303;SDS011;14791;52.392;13.092;2024-03-23T15:26:08;1.10;;;1.10;;
27303;SDS011;14791;52.392;13.092;2024-03-23T15:28:37;1.20;;;1.20;;
27303;SDS011;14791;52.392;13.092;2024-03-23T15:31:26;1.63;;;1.53;;
27303;SDS011;14791;52.392;13.092;2024-03-23T15:33:56;2.50;;;1.70;;
27303;SDS011;14791;52.392;13.092;2024-03-23T15:36:26;1.77;;;1.67;;
27303;SDS011;14791;52.392;13.092;2024-03-23T15:38:55;2.13;;;2.03;;
27303;SDS011;14791;52.392;13.092;2024-03-23T15:41:24;1.70;;;1.60;;
27303;SDS011;14791;52.392;13.092;2024-03-23T15:43:53;2.10;;;2.00;;